Arecibo, Puerto Rico
Current Conditions -  °F | °C
As of 8:50 PM on Saturday 22 Nov 2014 (Local Time) from TJBQ Reporting Station
Scattered Clouds Scattered Clouds  
Wind Chill: 77°   Ceiling: Unl
Heat Index: 78°   Visibility: 10mi
Dew Point: 72°   Wind: 8mph
Humidity: 83%   Direction: 110°ESE
Pressure: 30.02"   Gusts: NA
Location:  18.47°N, 66.71°W
Report Text: TJBQ 230050Z 11007KT 10SM SCT120 25/22 A3002 RMK TOWER CLOSED 0100-0900Z
Loading
Personal Weather Stations






























Interactive Weather Map New forecast layout! Learn more

10-Day Weather Forecast

Advertisements
Track Severe Weather on mobile